Time;durP1;ratioP1;P1;durP2;ratioP2;P2;SDS_P1;SDS_P2;PMS_P1;PMS_P2;Temp;Humidity;BMP_temperature;BMP_pressure;BME280_temperature;BME280_humidity;BME280_pressure;Samples;Min_cycle;Max_cycle;Signal;HPM_P1;HPM_P2
2021/05/15 00:01:51;;;;;;;4.13;2.38;;;9.40;99.90;;;;;;5009250;28;20050;-59
2021/05/15 00:04:16;;;;;;;4.15;2.15;;;9.40;99.90;;;;;;5011691;28;20034;-57
2021/05/15 00:06:42;;;;;;;4.15;2.30;;;9.50;99.90;;;;;;5010703;28;20033;-58
2021/05/15 00:09:08;;;;;;;6.43;4.25;;;9.50;99.90;;;;;;5007666;28;20486;-55
2021/05/15 00:11:35;;;;;;;6.00;2.92;;;9.60;99.90;;;;;;5010230;28;20034;-57
2021/05/15 00:14:02;;;;;;;3.63;2.30;;;9.60;99.90;;;;;;5009611;28;20029;-57
2021/05/15 00:16:27;;;;;;;3.50;2.42;;;9.60;99.90;;;;;;5011431;28;20041;-57
2021/05/15 00:18:53;;;;;;;3.25;1.95;;;9.60;99.90;;;;;;5010345;28;20410;-57
2021/05/15 00:21:18;;;;;;;4.40;2.63;;;9.70;99.90;;;;;;5010617;28;20041;-57
2021/05/15 00:23:44;;;;;;;4.40;2.08;;;9.70;99.90;;;;;;5010205;28;20030;-57
2021/05/15 00:26:12;;;;;;;8.55;2.25;;;9.70;99.90;;;;;;5010991;28;20157;-57
2021/05/15 00:28:38;;;;;;;4.45;2.05;;;9.70;99.90;;;;;;5013730;28;20042;-57
2021/05/15 00:31:03;;;;;;;3.70;2.05;;;9.60;99.90;;;;;;5011756;28;20096;-57
2021/05/15 00:33:29;;;;;;;2.95;2.00;;;9.60;99.90;;;;;;5012616;28;20414;-57
2021/05/15 00:35:55;;;;;;;5.10;1.58;;;9.60;99.90;;;;;;5013012;28;20510;-58
2021/05/15 00:38:20;;;;;;;3.13;1.60;;;9.50;99.90;;;;;;5012779;28;20028;-56
2021/05/15 00:40:46;;;;;;;3.28;1.70;;;9.40;99.90;;;;;;5010366;28;20368;-57
2021/05/15 00:43:11;;;;;;;4.93;1.63;;;9.40;99.90;;;;;;5005855;28;20045;-58
2021/05/15 00:45:37;;;;;;;3.58;1.70;;;9.20;99.90;;;;;;5012998;28;20049;-59
2021/05/15 00:48:04;;;;;;;2.05;1.35;;;9.20;99.90;;;;;;5010023;28;20119;-57
2021/05/15 00:50:31;;;;;;;3.40;1.65;;;9.10;99.90;;;;;;5008160;28;20030;-57
2021/05/15 00:52:58;;;;;;;2.90;1.80;;;9.00;99.90;;;;;;5006569;28;20483;-55
2021/05/15 00:55:24;;;;;;;2.40;2.00;;;8.90;99.90;;;;;;5005869;28;20014;-58
2021/05/15 00:57:50;;;;;;;4.10;1.80;;;8.90;99.90;;;;;;5010788;28;20072;-56
2021/05/15 01:00:16;;;;;;;3.25;1.88;;;8.90;99.90;;;;;;5008605;28;20463;-57
2021/05/15 01:02:42;;;;;;;5.68;3.63;;;8.80;99.90;;;;;;5003759;28;20771;-58
2021/05/15 01:05:10;;;;;;;3.80;2.33;;;8.80;99.90;;;;;;5011259;28;20033;-59
2021/05/15 01:07:36;;;;;;;5.45;2.20;;;8.70;99.90;;;;;;5010408;28;20080;-58
2021/05/15 01:10:04;;;;;;;4.32;2.60;;;8.70;99.90;;;;;;5014017;28;20056;-60
2021/05/15 01:12:30;;;;;;;4.88;3.42;;;8.60;99.90;;;;;;5011307;28;20030;-57
2021/05/15 01:14:56;;;;;;;4.30;2.60;;;8.50;99.90;;;;;;5015426;28;20368;-58
2021/05/15 01:17:22;;;;;;;3.85;2.80;;;8.50;99.90;;;;;;5010160;28;20083;-57
2021/05/15 01:19:47;;;;;;;3.33;2.85;;;8.40;99.90;;;;;;5005264;28;20045;-58
2021/05/15 01:22:14;;;;;;;4.53;3.15;;;8.40;99.90;;;;;;5004731;28;20026;-56
2021/05/15 01:24:45;;;;;;;4.43;2.63;;;8.40;99.90;;;;;;5009713;28;20514;-57
2021/05/15 01:27:14;;;;;;;5.03;2.40;;;8.50;99.90;;;;;;4981618;28;20049;-56
2021/05/15 01:29:41;;;;;;;5.05;2.83;;;8.50;99.90;;;;;;5007045;28;20037;-58
2021/05/15 01:32:06;;;;;;;4.10;2.60;;;8.60;99.90;;;;;;5010875;28;20096;-55
2021/05/15 01:34:32;;;;;;;3.83;2.35;;;8.70;99.90;;;;;;5008263;28;20078;-55
2021/05/15 01:36:57;;;;;;;4.03;2.00;;;8.80;99.90;;;;;;5004204;28;20056;-58
2021/05/15 01:39:23;;;;;;;3.60;2.72;;;8.80;99.90;;;;;;5002680;28;20559;-58
2021/05/15 01:41:49;;;;;;;6.47;3.38;;;8.80;99.90;;;;;;5004278;28;20417;-57
2021/05/15 01:44:16;;;;;;;3.45;2.78;;;8.80;99.90;;;;;;5003409;28;20033;-58
2021/05/15 01:46:41;;;;;;;3.85;2.50;;;8.90;99.90;;;;;;4996971;28;20030;-55
2021/05/15 01:49:07;;;;;;;3.22;2.30;;;8.90;99.90;;;;;;4999612;28;20478;-57
2021/05/15 01:51:33;;;;;;;4.22;2.40;;;9.00;99.90;;;;;;4994365;28;20031;-59
2021/05/15 01:53:59;;;;;;;5.47;2.47;;;9.00;99.90;;;;;;5001627;28;20127;-55
2021/05/15 01:56:27;;;;;;;4.38;2.50;;;9.00;99.90;;;;;;5002124;28;20415;-57
2021/05/15 01:58:53;;;;;;;5.75;2.45;;;9.10;99.90;;;;;;5001522;28;20509;-57
2021/05/15 02:01:20;;;;;;;2.92;2.05;;;9.10;99.90;;;;;;4998686;28;20033;-59
2021/05/15 02:03:46;;;;;;;5.47;2.20;;;9.20;99.90;;;;;;5007040;28;20033;-54
2021/05/15 02:06:12;;;;;;;3.05;2.30;;;9.20;99.90;;;;;;5010578;28;20029;-55
2021/05/15 02:08:40;;;;;;;3.85;2.03;;;9.20;99.90;;;;;;5011892;28;20505;-58
2021/05/15 02:11:07;;;;;;;4.47;2.38;;;9.20;99.90;;;;;;5009753;28;20501;-56
2021/05/15 02:13:32;;;;;;;3.00;2.30;;;9.20;99.90;;;;;;5010272;28;20037;-57
2021/05/15 02:16:02;;;;;;;3.17;2.08;;;9.20;99.90;;;;;;5006659;28;20036;-54
2021/05/15 02:18:28;;;;;;;3.05;2.05;;;9.20;99.90;;;;;;5010097;28;20545;-56
2021/05/15 02:20:54;;;;;;;5.38;2.38;;;9.20;99.90;;;;;;5008409;28;20435;-55
2021/05/15 02:23:21;;;;;;;2.90;2.10;;;9.20;99.90;;;;;;5007510;28;20026;-58
2021/05/15 02:25:48;;;;;;;2.58;2.08;;;9.20;99.90;;;;;;5004643;28;20029;-57
2021/05/15 02:28:15;;;;;;;3.55;2.22;;;9.30;99.90;;;;;;5010800;28;20104;-54
2021/05/15 02:30:41;;;;;;;3.78;2.08;;;9.30;99.90;;;;;;5018244;28;20022;-56
2021/05/15 02:33:07;;;;;;;2.58;2.13;;;9.30;99.90;;;;;;5005635;28;20110;-59
2021/05/15 02:35:34;;;;;;;3.22;1.92;;;9.30;99.90;;;;;;5005482;28;20052;-59
2021/05/15 02:37:59;;;;;;;3.97;2.05;;;9.30;99.90;;;;;;5005675;28;20109;-58
2021/05/15 02:40:25;;;;;;;2.67;2.00;;;9.30;99.90;;;;;;5005897;28;20129;-58
2021/05/15 02:42:51;;;;;;;6.78;2.03;;;9.30;99.90;;;;;;5005629;28;20553;-57
2021/05/15 02:45:22;;;;;;;6.20;2.38;;;9.30;99.90;;;;;;5011697;28;21563;-56
2021/05/15 02:47:50;;;;;;;2.40;1.70;;;9.30;99.90;;;;;;5009705;28;20037;-56
2021/05/15 02:50:17;;;;;;;4.13;2.28;;;9.30;99.90;;;;;;5009272;28;20386;-57
2021/05/15 02:52:43;;;;;;;5.53;2.03;;;9.30;99.90;;;;;;5009670;28;20091;-56
2021/05/15 02:55:11;;;;;;;4.72;1.85;;;9.30;99.90;;;;;;5009215;28;20037;-55
2021/05/15 02:57:37;;;;;;;7.30;2.17;;;9.20;99.90;;;;;;5008941;28;20095;-56
2021/05/15 03:00:07;;;;;;;4.85;2.83;;;9.30;99.90;;;;;;5008891;28;20037;-57
2021/05/15 03:02:33;;;;;;;3.10;1.70;;;9.20;99.90;;;;;;5010977;28;20026;-56
2021/05/15 03:04:59;;;;;;;5.53;1.80;;;9.30;99.90;;;;;;5013676;28;20413;-56
2021/05/15 03:07:24;;;;;;;3.97;2.00;;;9.30;99.90;;;;;;5006575;28;20113;-57
2021/05/15 03:09:50;;;;;;;3.45;1.80;;;9.30;99.90;;;;;;5006791;28;20053;-57
2021/05/15 03:12:16;;;;;;;4.35;1.95;;;9.30;99.90;;;;;;5014558;28;20113;-56
2021/05/15 03:14:42;;;;;;;6.68;2.10;;;9.30;99.90;;;;;;5012576;28;20093;-56
2021/05/15 03:17:12;;;;;;;5.10;2.15;;;9.30;99.90;;;;;;5008990;28;20104;-57
2021/05/15 03:19:37;;;;;;;3.42;1.90;;;9.30;99.90;;;;;;5006089;28;20045;-54
2021/05/15 03:22:03;;;;;;;3.10;1.85;;;9.40;99.90;;;;;;5009368;28;20022;-55
2021/05/15 03:24:29;;;;;;;6.75;2.17;;;9.30;99.90;;;;;;5008939;28;20072;-58
2021/05/15 03:26:55;;;;;;;2.72;1.80;;;9.30;99.90;;;;;;5010277;28;20014;-56
2021/05/15 03:29:20;;;;;;;3.47;1.48;;;9.30;99.90;;;;;;5005216;28;20030;-58
2021/05/15 03:31:46;;;;;;;2.80;1.85;;;9.40;99.90;;;;;;5007130;28;20491;-57
2021/05/15 03:34:12;;;;;;;4.50;2.05;;;9.30;99.90;;;;;;5011057;28;20034;-57
2021/05/15 03:36:37;;;;;;;2.05;1.70;;;9.30;99.90;;;;;;5013634;28;20114;-57
2021/05/15 03:39:03;;;;;;;2.80;1.83;;;9.30;99.90;;;;;;5021970;28;20041;-56
2021/05/15 03:41:29;;;;;;;2.80;1.58;;;9.30;99.90;;;;;;5015498;28;20092;-58
2021/05/15 03:43:55;;;;;;;4.40;1.80;;;9.30;99.90;;;;;;5016504;28;20021;-57
2021/05/15 03:46:20;;;;;;;2.95;1.77;;;9.30;99.90;;;;;;5023492;28;20021;-56
2021/05/15 03:48:46;;;;;;;3.83;1.70;;;9.30;99.90;;;;;;5011061;28;20080;-53
2021/05/15 03:51:12;;;;;;;3.38;1.52;;;9.30;99.90;;;;;;5012504;28;20501;-57
2021/05/15 03:53:37;;;;;;;3.95;1.70;;;9.40;99.90;;;;;;5013041;28;20029;-55
2021/05/15 03:56:03;;;;;;;4.35;1.67;;;9.40;99.90;;;;;;5007172;28;20085;-56
2021/05/15 03:58:29;;;;;;;3.95;1.92;;;9.40;99.90;;;;;;5006619;28;20033;-56
2021/05/15 04:00:54;;;;;;;6.13;1.85;;;9.40;99.90;;;;;;5011376;28;20030;-57
2021/05/15 04:03:20;;;;;;;2.95;1.45;;;9.50;99.90;;;;;;5016517;28;20112;-57
2021/05/15 04:05:45;;;;;;;3.38;2.30;;;9.50;99.90;;;;;;5021613;28;20045;-57
2021/05/15 04:08:11;;;;;;;2.03;1.52;;;9.50;99.90;;;;;;5011664;28;20049;-59
2021/05/15 04:10:37;;;;;;;3.35;1.60;;;9.50;99.90;;;;;;5009179;28;20026;-57
2021/05/15 04:15:51;;;;;;;4.15;2.03;;;9.60;99.90;;;;;;5009043;28;20032;-58
2021/05/15 04:18:16;;;;;;;2.83;2.38;;;9.60;99.90;;;;;;5012577;28;20029;-57
2021/05/15 04:20:44;;;;;;;4.10;1.88;;;9.50;99.90;;;;;;5011925;28;20022;-55
2021/05/15 04:23:11;;;;;;;1.65;1.35;;;9.60;99.90;;;;;;5013008;28;20113;-57
2021/05/15 04:25:37;;;;;;;3.75;1.92;;;9.60;99.90;;;;;;5006593;28;20017;-58
2021/05/15 04:28:07;;;;;;;4.22;1.92;;;9.60;99.90;;;;;;5012794;28;20045;-55
2021/05/15 04:30:33;;;;;;;9.65;2.40;;;9.60;99.90;;;;;;5010916;28;20029;-55
2021/05/15 04:33:00;;;;;;;4.47;1.88;;;9.60;99.90;;;;;;4999251;28;20040;-56
2021/05/15 04:35:27;;;;;;;4.95;2.30;;;9.50;99.90;;;;;;5000917;28;20025;-57
2021/05/15 04:37:53;;;;;;;3.67;1.75;;;9.50;99.90;;;;;;5002792;28;20889;-54
2021/05/15 04:40:18;;;;;;;4.95;2.25;;;9.50;99.90;;;;;;5007654;28;20044;-57
2021/05/15 04:42:44;;;;;;;4.57;1.83;;;9.60;99.90;;;;;;5011114;28;20157;-57
2021/05/15 04:45:12;;;;;;;4.25;2.10;;;9.50;99.90;;;;;;5011440;28;20022;-55
2021/05/15 04:47:38;;;;;;;4.75;2.10;;;9.50;99.90;;;;;;5011973;28;20026;-57
2021/05/15 04:50:06;;;;;;;3.08;2.40;;;9.50;99.90;;;;;;5011188;28;20030;-56
2021/05/15 04:52:32;;;;;;;3.25;1.98;;;9.50;99.90;;;;;;5007035;28;20034;-56
2021/05/15 04:54:58;;;;;;;3.00;2.00;;;9.50;99.90;;;;;;5004230;28;20038;-59
2021/05/15 04:57:24;;;;;;;5.40;2.50;;;9.50;99.90;;;;;;5004276;28;20455;-56
2021/05/15 04:59:49;;;;;;;3.20;2.95;;;9.60;99.90;;;;;;5005012;28;20081;-57
2021/05/15 05:02:15;;;;;;;2.47;1.90;;;9.60;99.90;;;;;;5007617;28;20022;-56
2021/05/15 05:04:40;;;;;;;3.38;1.95;;;9.60;99.90;;;;;;5009639;28;20040;-57
2021/05/15 05:07:06;;;;;;;4.18;2.05;;;9.70;99.90;;;;;;5011602;28;20053;-55
2021/05/15 05:09:32;;;;;;;6.60;2.10;;;9.70;99.90;;;;;;5009056;28;20034;-58
2021/05/15 05:11:58;;;;;;;6.78;1.90;;;9.70;99.90;;;;;;5006073;28;20065;-57
2021/05/15 05:14:24;;;;;;;4.82;1.95;;;9.70;99.90;;;;;;5001440;28;20522;-57
2021/05/15 05:16:54;;;;;;;3.50;2.05;;;9.80;99.90;;;;;;5008185;28;20030;-57
2021/05/15 05:19:20;;;;;;;3.45;2.35;;;9.80;99.90;;;;;;5006697;28;20113;-58
2021/05/15 05:21:46;;;;;;;4.78;2.30;;;9.90;99.90;;;;;;5009483;28;20033;-58
2021/05/15 05:24:11;;;;;;;2.70;2.38;;;9.90;99.90;;;;;;5008852;28;20049;-57
2021/05/15 05:26:38;;;;;;;6.93;2.30;;;9.80;99.90;;;;;;5011009;28;20034;-58
2021/05/15 05:29:09;;;;;;;5.20;2.65;;;9.80;99.90;;;;;;5010547;28;20522;-57
2021/05/15 05:31:40;;;;;;;4.55;2.17;;;9.90;99.90;;;;;;5002275;28;20046;-59
2021/05/15 05:34:07;;;;;;;4.60;2.17;;;9.90;99.90;;;;;;5007070;28;20399;-56
2021/05/15 05:36:34;;;;;;;3.92;2.03;;;9.90;99.90;;;;;;5006359;28;20040;-57
2021/05/15 05:39:00;;;;;;;4.28;2.08;;;9.90;99.90;;;;;;5004079;28;20137;-57
2021/05/15 05:41:26;;;;;;;8.38;1.98;;;9.90;99.90;;;;;;5010721;28;20494;-56
2021/05/15 05:43:53;;;;;;;3.30;2.13;;;9.90;99.90;;;;;;5014339;28;20475;-56
2021/05/15 05:46:19;;;;;;;2.88;1.90;;;9.80;99.90;;;;;;5006891;28;20076;-58
2021/05/15 05:48:45;;;;;;;4.82;2.13;;;9.80;99.90;;;;;;5011454;28;20073;-58
2021/05/15 05:51:11;;;;;;;6.32;2.45;;;9.80;99.90;;;;;;5020758;28;20097;-57
2021/05/15 05:53:36;;;;;;;2.67;1.90;;;9.90;99.90;;;;;;5016518;28;20041;-57
2021/05/15 05:56:03;;;;;;;4.57;1.80;;;9.90;99.90;;;;;;5013668;28;20478;-56
2021/05/15 05:58:28;;;;;;;3.75;2.03;;;10.10;99.90;;;;;;5009376;28;20028;-58
2021/05/15 06:00:54;;;;;;;2.20;1.95;;;10.20;99.90;;;;;;5017764;28;20390;-58
2021/05/15 06:03:20;;;;;;;2.97;1.95;;;10.30;99.90;;;;;;5020178;28;20032;-58
2021/05/15 06:05:45;;;;;;;3.05;2.00;;;10.50;99.90;;;;;;5010786;28;20033;-53
2021/05/15 06:08:11;;;;;;;2.25;1.90;;;10.50;99.90;;;;;;5020135;28;20014;-58
2021/05/15 06:10:38;;;;;;;1.52;1.42;;;10.50;99.90;;;;;;5010200;28;20046;-54
2021/05/15 06:13:05;;;;;;;2.58;1.92;;;10.50;99.90;;;;;;5019699;28;20025;-56
2021/05/15 06:15:30;;;;;;;4.28;1.80;;;10.60;99.90;;;;;;5009904;28;20034;-56
2021/05/15 06:17:56;;;;;;;2.70;1.60;;;10.60;99.90;;;;;;5002404;28;20041;-57
2021/05/15 06:20:22;;;;;;;2.63;1.90;;;10.70;99.90;;;;;;5007863;28;20030;-58
2021/05/15 06:22:48;;;;;;;2.03;1.30;;;10.90;99.90;;;;;;5008152;28;20156;-57
2021/05/15 06:25:14;;;;;;;2.97;1.70;;;11.20;99.90;;;;;;5014285;28;20368;-56
2021/05/15 06:27:39;;;;;;;2.63;1.90;;;11.10;99.90;;;;;;5009496;28;20506;-59
2021/05/15 06:30:06;;;;;;;3.05;1.80;;;11.20;99.90;;;;;;5001283;28;20484;-57
2021/05/15 06:32:31;;;;;;;2.88;1.55;;;11.20;99.90;;;;;;5005150;28;20510;-58
2021/05/15 06:34:57;;;;;;;1.88;1.60;;;11.10;99.90;;;;;;5008795;28;20053;-56
2021/05/15 06:37:23;;;;;;;5.47;2.00;;;11.10;99.90;;;;;;5008789;28;20037;-58
2021/05/15 06:39:48;;;;;;;4.88;1.60;;;11.40;99.90;;;;;;5018147;28;20193;-55
2021/05/15 06:42:14;;;;;;;2.53;1.60;;;11.60;99.90;;;;;;5006034;28;20052;-58
2021/05/15 06:44:39;;;;;;;2.03;1.50;;;11.90;99.90;;;;;;5002208;28;20033;-57
2021/05/15 06:47:05;;;;;;;2.42;1.70;;;11.90;99.90;;;;;;5015872;28;20048;-58
2021/05/15 06:49:31;;;;;;;4.35;1.80;;;12.20;99.90;;;;;;5014076;28;20114;-58
2021/05/15 06:51:56;;;;;;;2.22;1.60;;;12.60;99.90;;;;;;5016177;28;20479;-55
2021/05/15 06:54:23;;;;;;;1.60;1.40;;;13.10;99.90;;;;;;5009615;28;20033;-54
2021/05/15 06:56:52;;;;;;;2.67;1.70;;;13.30;99.90;;;;;;5017172;28;20026;-55
2021/05/15 06:59:18;;;;;;;3.17;1.70;;;13.20;99.90;;;;;;5017240;28;20037;-57
2021/05/15 07:01:44;;;;;;;3.03;1.80;;;13.00;99.90;;;;;;4989850;28;20049;-58
2021/05/15 07:04:11;;;;;;;3.80;1.70;;;12.80;99.90;;;;;;5013672;28;20026;-57
2021/05/15 07:06:37;;;;;;;2.42;1.63;;;12.60;99.90;;;;;;5017330;28;20033;-59
2021/05/15 07:09:05;;;;;;;3.25;2.42;;;12.30;99.90;;;;;;5016683;28;20541;-57
2021/05/15 07:11:31;;;;;;;2.65;2.10;;;12.10;99.90;;;;;;5016878;28;20128;-60
2021/05/15 07:13:57;;;;;;;2.20;1.80;;;12.00;99.90;;;;;;5019436;28;20473;-58
2021/05/15 07:16:22;;;;;;;2.38;1.70;;;11.80;99.90;;;;;;5006709;28;20065;-59
2021/05/15 07:18:48;;;;;;;3.20;2.10;;;11.70;99.90;;;;;;5006816;28;20030;-59
2021/05/15 07:21:13;;;;;;;3.90;2.10;;;11.60;99.90;;;;;;5003250;28;20454;-58
2021/05/15 07:23:39;;;;;;;2.80;1.98;;;11.50;99.90;;;;;;5007137;28;20022;-59
2021/05/15 07:26:07;;;;;;;2.85;2.13;;;11.50;99.90;;;;;;5003560;28;20113;-58
2021/05/15 07:28:34;;;;;;;3.72;2.00;;;11.60;99.90;;;;;;5006898;28;20426;-57
2021/05/15 07:31:00;;;;;;;5.20;2.13;;;11.60;99.90;;;;;;5008322;28;20026;-58
2021/05/15 07:33:26;;;;;;;5.32;2.05;;;11.80;99.90;;;;;;5009867;28;20080;-59
2021/05/15 07:35:52;;;;;;;19.08;3.28;;;11.90;99.90;;;;;;5008586;28;20403;-61
2021/05/15 07:38:21;;;;;;;2.80;2.30;;;12.10;99.90;;;;;;5009796;28;20088;-57
2021/05/15 07:40:47;;;;;;;2.10;1.77;;;12.40;99.90;;;;;;5011439;28;20045;-59
2021/05/15 07:43:12;;;;;;;2.58;1.83;;;12.80;99.90;;;;;;5008649;28;20026;-58
2021/05/15 07:45:38;;;;;;;3.30;1.85;;;13.50;99.90;;;;;;5008729;28;20061;-60
2021/05/15 07:48:04;;;;;;;2.88;1.77;;;15.10;99.90;;;;;;5008697;28;20061;-59
2021/05/15 07:50:30;;;;;;;1.98;1.77;;;16.50;99.90;;;;;;5006868;28;20037;-59
2021/05/15 07:52:56;;;;;;;2.97;2.03;;;17.60;99.90;;;;;;5006252;28;20034;-59
2021/05/15 07:55:22;;;;;;;4.63;2.00;;;18.20;99.90;;;;;;5008888;28;20052;-58
2021/05/15 07:57:48;;;;;;;2.50;1.23;;;18.80;99.90;;;;;;5012115;28;20484;-59
2021/05/15 08:00:14;;;;;;;3.17;1.70;;;19.70;99.90;;;;;;5009054;28;20030;-60
2021/05/15 08:02:41;;;;;;;2.05;1.50;;;21.70;96.90;;;;;;4991818;28;20087;-59
2021/05/15 08:05:07;;;;;;;2.42;1.75;;;22.80;94.30;;;;;;5007912;28;20034;-58
2021/05/15 08:07:33;;;;;;;6.28;1.52;;;22.60;90.80;;;;;;5008942;28;20029;-59
2021/05/15 08:09:58;;;;;;;3.25;1.92;;;21.40;92.20;;;;;;5005542;28;20026;-58
2021/05/15 08:12:24;;;;;;;3.97;2.08;;;18.90;94.90;;;;;;5008549;28;20535;-59
2021/05/15 08:14:50;;;;;;;2.83;2.03;;;17.50;97.80;;;;;;5008370;28;20038;-57
2021/05/15 08:17:15;;;;;;;4.38;2.70;;;16.30;99.90;;;;;;5012125;28;20407;-60
2021/05/15 08:19:41;;;;;;;4.88;3.38;;;15.70;99.90;;;;;;5005815;28;20034;-58
2021/05/15 08:22:07;;;;;;;4.13;3.00;;;15.30;99.90;;;;;;5011244;28;20056;-57
2021/05/15 08:24:32;;;;;;;6.43;2.88;;;14.80;99.90;;;;;;5011547;28;20121;-59
2021/05/15 08:26:58;;;;;;;5.80;3.22;;;14.60;99.90;;;;;;5009549;28;20018;-59
2021/05/15 08:29:24;;;;;;;3.47;2.90;;;14.90;99.90;;;;;;5009957;28;20034;-59
2021/05/15 08:31:50;;;;;;;2.95;2.65;;;15.90;99.90;;;;;;5008002;28;20044;-60
2021/05/15 08:34:16;;;;;;;3.78;2.80;;;17.10;99.90;;;;;;5011153;28;20037;-59
2021/05/15 08:36:42;;;;;;;3.17;2.58;;;18.00;99.90;;;;;;5013571;28;20088;-59
2021/05/15 08:39:08;;;;;;;5.05;2.00;;;18.50;99.70;;;;;;5017885;28;20072;-61
2021/05/15 08:41:34;;;;;;;2.70;2.17;;;18.20;99.20;;;;;;5011130;28;20054;-58
2021/05/15 08:44:02;;;;;;;2.65;2.20;;;17.60;98.10;;;;;;5007311;28;20057;-60
2021/05/15 08:46:29;;;;;;;5.20;2.40;;;17.90;97.90;;;;;;5000739;28;20028;-58
2021/05/15 08:48:57;;;;;;;5.55;2.10;;;18.30;97.00;;;;;;5009667;28;20116;-58
2021/05/15 08:51:24;;;;;;;4.20;2.33;;;19.20;96.10;;;;;;5010481;28;20030;-58
2021/05/15 08:53:50;;;;;;;5.75;2.85;;;18.90;92.90;;;;;;5011959;28;20038;-58
2021/05/15 08:56:17;;;;;;;4.88;2.60;;;18.50;94.00;;;;;;5014643;28;20079;-61
2021/05/15 08:58:44;;;;;;;4.53;2.83;;;17.90;94.10;;;;;;5019570;28;20037;-58
2021/05/15 09:01:13;;;;;;;3.92;2.60;;;18.20;95.10;;;;;;5005005;28;20089;-58
2021/05/15 09:03:39;;;;;;;3.33;2.40;;;18.60;93.20;;;;;;5006388;28;20595;-57
2021/05/15 09:06:05;;;;;;;6.18;3.03;;;18.60;92.40;;;;;;5010977;28;20045;-57
2021/05/15 09:08:31;;;;;;;3.85;2.50;;;18.40;92.00;;;;;;5003436;28;20475;-58
2021/05/15 09:10:57;;;;;;;4.13;2.88;;;18.30;91.80;;;;;;5010292;28;20033;-59
2021/05/15 09:13:26;;;;;;;4.30;2.25;;;18.40;93.00;;;;;;5011193;28;20496;-61
2021/05/15 09:15:57;;;;;;;2.75;2.50;;;18.90;93.70;;;;;;5017740;28;20018;-59
2021/05/15 09:18:25;;;;;;;3.75;2.70;;;18.50;91.90;;;;;;5013186;28;20479;-59
2021/05/15 09:20:54;;;;;;;5.03;3.20;;;18.30;92.50;;;;;;5007130;28;20037;-61
2021/05/15 09:23:25;;;;;;;4.72;3.00;;;18.20;92.60;;;;;;5008787;28;20030;-59
2021/05/15 09:26:09;;;;;;;4.40;3.03;;;18.20;92.30;;;;;;5010411;28;20498;-58
2021/05/15 09:28:35;;;;;;;6.13;3.88;;;18.10;92.40;;;;;;5012041;28;20121;-60
2021/05/15 09:31:09;;;;;;;6.93;3.50;;;18.00;92.70;;;;;;5010003;28;20096;-59
2021/05/15 09:33:38;;;;;;;4.85;3.20;;;17.60;93.70;;;;;;5007898;28;20076;-58
2021/05/15 09:36:37;;;;;;;5.13;3.53;;;17.20;94.60;;;;;;5010991;28;20018;-62
2021/05/15 09:39:12;;;;;;;4.65;3.67;;;16.70;95.60;;;;;;5010506;28;20029;-58
2021/05/15 09:41:51;;;;;;;5.57;3.70;;;16.40;97.10;;;;;;5010045;28;20468;-61
2021/05/15 09:44:33;;;;;;;4.97;3.47;;;16.30;98.00;;;;;;5018896;28;20029;-59
2021/05/15 09:47:00;;;;;;;4.00;2.92;;;16.30;99.20;;;;;;5001374;28;20030;-59
2021/05/15 09:49:30;;;;;;;7.35;3.92;;;16.20;99.90;;;;;;5010121;28;20026;-58
2021/05/15 09:51:57;;;;;;;4.45;3.65;;;16.20;99.00;;;;;;5001621;28;20120;-58
2021/05/15 09:54:28;;;;;;;6.88;3.70;;;16.30;98.00;;;;;;5022966;28;20737;-57
2021/05/15 09:56:59;;;;;;;4.07;3.30;;;16.20;98.80;;;;;;5022096;28;20065;-57
2021/05/15 09:59:34;;;;;;;4.82;3.50;;;16.20;99.00;;;;;;5006802;28;20030;-55
2021/05/15 10:02:05;;;;;;;6.00;4.10;;;15.90;98.60;;;;;;5015542;28;20029;-59
2021/05/15 10:04:33;;;;;;;5.75;3.42;;;15.70;98.70;;;;;;5015152;28;20036;-57
2021/05/15 10:07:00;;;;;;;4.13;3.35;;;15.70;98.20;;;;;;5014497;28;20018;-57
2021/05/15 10:09:33;;;;;;;6.32;4.22;;;15.80;99.10;;;;;;5004574;28;20376;-59
2021/05/15 10:12:02;;;;;;;4.47;3.17;;;16.40;99.40;;;;;;5006360;28;20104;-59
2021/05/15 10:14:28;;;;;;;5.18;4.00;;;17.00;97.10;;;;;;5009131;28;20542;-60
2021/05/15 10:16:57;;;;;;;6.10;4.05;;;16.40;95.70;;;;;;5029193;28;20038;-58
2021/05/15 10:19:23;;;;;;;11.90;3.55;;;16.10;97.20;;;;;;5009912;28;20041;-58
2021/05/15 10:21:49;;;;;;;8.00;4.38;;;15.60;99.90;;;;;;5011220;28;20119;-58
2021/05/15 10:24:35;;;;;;;9.82;4.97;;;15.10;99.90;;;;;;5005019;28;20026;-57
2021/05/15 10:27:03;;;;;;;5.07;3.17;;;14.40;99.90;;;;;;5005380;28;20029;-58
2021/05/15 10:29:48;;;;;;;4.43;3.17;;;13.70;99.90;;;;;;4999546;28;20498;-58
2021/05/15 10:32:26;;;;;;;3.63;2.83;;;13.20;99.90;;;;;;4999505;28;20044;-57
2021/05/15 10:35:03;;;;;;;5.40;3.38;;;12.60;99.90;;;;;;5007871;28;20034;-58
2021/05/15 10:37:34;;;;;;;6.88;4.18;;;12.80;99.90;;;;;;5008585;28;20033;-59
2021/05/15 10:40:13;;;;;;;16.45;14.27;;;13.00;99.90;;;;;;5005351;28;20030;-58
2021/05/15 10:42:39;;;;;;;9.15;8.30;;;13.10;99.90;;;;;;5007855;28;20030;-58
2021/05/15 10:45:07;;;;;;;11.50;10.43;;;13.50;99.90;;;;;;5008404;28;20021;-56
2021/05/15 10:47:43;;;;;;;5.13;4.65;;;13.60;99.90;;;;;;5009974;28;20026;-57
2021/05/15 10:50:22;;;;;;;4.25;2.70;;;13.90;99.90;;;;;;4995373;28;20050;-60
2021/05/15 10:52:50;;;;;;;4.25;3.85;;;13.90;99.90;;;;;;4998350;28;20015;-57
2021/05/15 10:55:38;;;;;;;3.85;2.70;;;13.80;99.90;;;;;;5003522;28;20037;-59
2021/05/15 10:58:11;;;;;;;7.22;3.30;;;13.60;99.90;;;;;;5007660;28;20507;-58
2021/05/15 11:00:37;;;;;;;5.22;3.15;;;13.60;99.90;;;;;;5007438;28;20041;-58
2021/05/15 11:03:02;;;;;;;4.38;2.60;;;13.50;99.90;;;;;;5005898;28;20041;-59
2021/05/15 11:05:40;;;;;;;3.92;2.90;;;13.40;99.90;;;;;;5007053;28;20109;-60
2021/05/15 11:08:05;;;;;;;5.10;2.80;;;13.40;99.90;;;;;;5001585;28;20037;-59
2021/05/15 11:10:35;;;;;;;4.53;3.17;;;13.30;99.90;;;;;;5005571;28;20490;-56
2021/05/15 11:13:08;;;;;;;6.32;3.95;;;13.30;99.90;;;;;;5006793;28;20052;-58
2021/05/15 11:15:33;;;;;;;5.57;2.10;;;13.70;99.90;;;;;;5008599;28;20030;-56
2021/05/15 11:18:05;;;;;;;2.53;1.38;;;14.10;99.90;;;;;;5004275;28;20387;-57
2021/05/15 11:20:47;;;;;;;2.63;1.80;;;14.70;99.90;;;;;;5001935;28;20462;-55
2021/05/15 11:23:17;;;;;;;2.38;1.80;;;15.20;99.90;;;;;;5002759;28;20033;-55
2021/05/15 11:25:57;;;;;;;5.57;2.63;;;15.50;99.90;;;;;;5001294;28;20505;-58
2021/05/15 11:28:27;;;;;;;3.47;1.80;;;15.70;99.90;;;;;;5000752;28;20426;-60
2021/05/15 11:30:53;;;;;;;1.95;1.15;;;16.00;99.90;;;;;;5000001;28;20128;-58
2021/05/15 11:33:23;;;;;;;3.83;2.05;;;16.30;99.90;;;;;;4997801;28;20101;-58
2021/05/15 11:35:52;;;;;;;9.40;2.67;;;16.50;99.90;;;;;;5002376;28;20036;-56
2021/05/15 11:38:23;;;;;;;3.13;1.95;;;16.20;99.90;;;;;;4994401;28;20026;-56
2021/05/15 11:40:48;;;;;;;1.73;1.30;;;16.30;99.90;;;;;;5003299;28;20030;-58
2021/05/15 11:43:29;;;;;;;1.65;1.42;;;16.30;99.90;;;;;;5005800;28;20407;-56
2021/05/15 11:45:55;;;;;;;2.55;1.23;;;16.30;99.90;;;;;;5005802;28;20021;-56
2021/05/15 11:48:23;;;;;;;3.53;1.40;;;16.40;99.90;;;;;;5004437;28;20034;-55
2021/05/15 11:51:15;;;;;;;4.15;2.20;;;16.40;99.90;;;;;;5010468;28;20093;-57
2021/05/15 11:53:48;;;;;;;5.15;1.85;;;16.70;99.90;;;;;;4999892;28;20022;-53
2021/05/15 11:56:28;;;;;;;3.28;1.20;;;16.50;99.90;;;;;;5000113;28;20109;-53
2021/05/15 11:58:59;;;;;;;1.88;1.10;;;16.40;99.90;;;;;;5007452;28;20048;-57
2021/05/15 12:01:26;;;;;;;2.30;1.35;;;16.90;99.90;;;;;;5001638;28;20153;-59
2021/05/15 12:04:03;;;;;;;1.85;1.40;;;17.30;99.90;;;;;;5008728;28;20033;-56
2021/05/15 12:06:29;;;;;;;1.70;1.08;;;17.50;99.90;;;;;;5002905;28;20542;-53
2021/05/15 12:08:54;;;;;;;2.35;1.00;;;17.80;99.90;;;;;;5005011;28;20025;-56
2021/05/15 12:11:24;;;;;;;4.03;1.42;;;17.90;98.50;;;;;;5002954;28;20502;-59
2021/05/15 12:13:51;;;;;;;0.80;0.80;;;17.70;99.70;;;;;;5004082;28;20030;-57
2021/05/15 12:16:17;;;;;;;1.08;0.95;;;17.60;99.80;;;;;;5005962;28;20435;-58
2021/05/15 12:18:43;;;;;;;2.25;1.30;;;17.60;99.50;;;;;;5006389;28;20496;-57
2021/05/15 12:21:09;;;;;;;4.00;1.35;;;17.40;99.90;;;;;;5009062;28;20022;-58
2021/05/15 12:23:35;;;;;;;3.40;1.20;;;17.40;99.90;;;;;;5011265;28;20046;-56
2021/05/15 12:26:07;;;;;;;2.88;1.45;;;17.40;99.90;;;;;;5014195;28;20410;-59
2021/05/15 12:28:41;;;;;;;4.78;1.33;;;17.40;97.50;;;;;;5015704;28;20439;-59
2021/05/15 12:31:40;;;;;;;2.00;1.20;;;17.20;99.30;;;;;;5015327;28;20347;-56
2021/05/15 12:34:07;;;;;;;5.22;1.33;;;17.60;99.90;;;;;;5011989;28;20042;-57
2021/05/15 12:36:38;;;;;;;4.05;1.58;;;18.00;99.00;;;;;;5012818;28;20033;-56
2021/05/15 12:39:10;;;;;;;2.47;1.25;;;17.90;96.90;;;;;;5015364;28;20029;-57
2021/05/15 12:41:38;;;;;;;3.63;1.20;;;17.80;99.70;;;;;;5002496;28;20053;-59
2021/05/15 12:44:18;;;;;;;4.88;1.40;;;17.80;98.50;;;;;;5008994;28;20402;-57
2021/05/15 12:46:49;;;;;;;4.85;2.03;;;17.70;97.80;;;;;;5009720;28;20014;-56
2021/05/15 12:49:19;;;;;;;3.72;1.50;;;17.90;98.90;;;;;;5004408;28;20014;-58
2021/05/15 12:51:52;;;;;;;4.15;1.38;;;18.10;97.70;;;;;;5009746;28;20026;-59
2021/05/15 12:54:23;;;;;;;2.33;1.40;;;18.00;97.40;;;;;;5012157;28;20022;-57
2021/05/15 12:56:54;;;;;;;2.63;1.15;;;17.60;96.40;;;;;;5011397;28;20123;-60